createdAt,value
2018-01-11T00:00:10.643Z,988.54
2018-01-11T00:01:10.617Z,988.56
2018-01-11T00:02:10.638Z,988.58
2018-01-11T00:03:10.572Z,988.57
2018-01-11T00:04:10.542Z,988.56
2018-01-11T00:05:10.515Z,988.54
2018-01-11T00:06:10.486Z,988.56
2018-01-11T00:07:10.458Z,988.52
2018-01-11T00:08:10.452Z,988.57
2018-01-11T00:09:10.412Z,988.55
2018-01-11T00:10:10.380Z,988.56
2018-01-11T00:11:10.361Z,988.52
2018-01-11T00:12:10.330Z,988.53
2018-01-11T00:13:10.303Z,988.55
2018-01-11T00:14:10.279Z,988.53
2018-01-11T00:15:10.259Z,988.50
2018-01-11T00:16:10.234Z,988.50
2018-01-11T00:17:10.202Z,988.48
2018-01-11T00:18:10.173Z,988.50
2018-01-11T00:19:10.152Z,988.51
2018-01-11T00:20:10.122Z,988.53
2018-01-11T00:21:10.098Z,988.54
2018-01-11T00:22:10.070Z,988.56
2018-01-11T00:23:10.049Z,988.54
2018-01-11T00:24:10.018Z,988.51
2018-01-11T00:25:09.993Z,988.50
2018-01-11T00:26:09.966Z,988.49
2018-01-11T00:27:09.942Z,988.53
2018-01-11T00:28:09.915Z,988.54
2018-01-11T00:29:09.889Z,988.51
2018-01-11T00:30:09.860Z,988.50
2018-01-11T00:31:09.837Z,988.53
2018-01-11T00:32:09.814Z,988.49
2018-01-11T00:33:09.785Z,988.52
2018-01-11T00:34:09.758Z,988.50
2018-01-11T00:35:09.737Z,988.50
2018-01-11T00:36:09.711Z,988.52
2018-01-11T00:37:09.678Z,988.56
2018-01-11T00:38:09.659Z,988.58
2018-01-11T00:39:09.632Z,988.54
2018-01-11T00:40:09.602Z,988.55
2018-01-11T00:41:09.575Z,988.54
2018-01-11T00:42:09.549Z,988.56
2018-01-11T00:43:09.523Z,988.56
2018-01-11T00:44:09.504Z,988.58
2018-01-11T00:45:09.472Z,988.58
2018-01-11T00:46:09.451Z,988.61
2018-01-11T00:47:09.422Z,988.58
2018-01-11T00:48:09.394Z,988.60
2018-01-11T00:49:09.368Z,988.63
2018-01-11T00:50:09.359Z,988.67
2018-01-11T00:51:09.317Z,988.65
2018-01-11T00:52:09.296Z,988.69
2018-01-11T00:53:09.261Z,988.68
2018-01-11T00:54:09.236Z,988.66
2018-01-11T00:55:09.208Z,988.64
2018-01-11T00:56:09.186Z,988.61
2018-01-11T00:57:09.156Z,988.59
2018-01-11T00:58:09.132Z,988.58
2018-01-11T00:59:09.109Z,988.58
2018-01-11T01:00:09.083Z,988.55
2018-01-11T01:01:09.054Z,988.57
2018-01-11T01:02:09.027Z,988.56
2018-01-11T01:03:09.001Z,988.58
2018-01-11T01:04:08.976Z,988.55
2018-01-11T01:05:08.947Z,988.58
2018-01-11T01:06:08.922Z,988.58
2018-01-11T01:07:08.894Z,988.61
2018-01-11T01:08:08.876Z,988.64
2018-01-11T01:09:08.881Z,988.65
2018-01-11T01:10:08.819Z,988.67
2018-01-11T01:11:08.794Z,988.68
2018-01-11T01:12:08.768Z,988.74
2018-01-11T01:13:08.739Z,988.76
2018-01-11T01:14:08.715Z,988.78
2018-01-11T01:15:08.687Z,988.78
2018-01-11T01:16:08.668Z,988.81
2018-01-11T01:17:08.634Z,988.80
2018-01-11T01:18:08.613Z,988.83
2018-01-11T01:19:08.583Z,988.82
2018-01-11T01:20:08.558Z,988.80
2018-01-11T01:21:08.532Z,988.82
2018-01-11T01:22:08.501Z,988.82
2018-01-11T01:23:08.478Z,988.81
2018-01-11T01:24:08.454Z,988.86
2018-01-11T01:25:08.435Z,988.83
2018-01-11T01:26:08.475Z,988.86
2018-01-11T01:27:08.379Z,988.91
2018-01-11T01:28:08.352Z,988.94
2018-01-11T01:29:08.326Z,988.95
2018-01-11T01:30:08.298Z,988.99
2018-01-11T01:31:08.286Z,988.98
2018-01-11T01:32:08.249Z,989.00
2018-01-11T01:33:08.220Z,988.98
2018-01-11T01:34:08.207Z,989.00
2018-01-11T01:35:08.171Z,989.04
2018-01-11T01:36:08.142Z,988.99
2018-01-11T01:37:08.121Z,989.02
2018-01-11T01:38:08.089Z,988.98
2018-01-11T01:39:08.065Z,989.02
2018-01-11T01:40:08.042Z,988.98
2018-01-11T01:41:08.008Z,989.00
2018-01-11T01:42:07.985Z,989.05
2018-01-11T01:43:07.958Z,989.02
2018-01-11T01:44:07.976Z,989.04
2018-01-11T01:45:07.916Z,989.04
2018-01-11T01:46:28.878Z,989.02
2018-01-11T01:47:07.855Z,989.04
2018-01-11T01:48:07.828Z,989.04
2018-01-11T01:49:07.807Z,989.04
2018-01-11T01:50:07.775Z,989.05
2018-01-11T01:51:07.750Z,989.05
2018-01-11T01:52:07.725Z,988.98
2018-01-11T01:53:07.696Z,988.96
2018-01-11T01:54:07.669Z,989.00
2018-01-11T01:55:07.644Z,988.99
2018-01-11T01:56:07.621Z,988.97
2018-01-11T01:57:07.661Z,989.00
2018-01-11T01:58:07.568Z,988.97
2018-01-11T01:59:07.543Z,988.98
2018-01-11T02:00:07.513Z,988.96
2018-01-11T02:01:07.490Z,988.94
2018-01-11T02:02:07.465Z,988.93
2018-01-11T02:03:07.438Z,988.97
2018-01-11T02:04:07.411Z,988.97
2018-01-11T02:05:07.382Z,988.97
2018-01-11T02:06:07.360Z,988.97
2018-01-11T02:07:07.330Z,989.00
2018-01-11T02:08:07.305Z,989.00
2018-01-11T02:09:07.284Z,989.00
2018-01-11T02:10:07.253Z,988.99
2018-01-11T02:11:07.228Z,989.00
2018-01-11T02:12:07.206Z,988.97
2018-01-11T02:13:07.184Z,988.99
2018-01-11T02:14:07.153Z,989.00
2018-01-11T02:15:07.152Z,989.05
2018-01-11T02:16:07.097Z,989.03
2018-01-11T02:17:07.174Z,989.03
2018-01-11T02:18:07.070Z,989.09
2018-01-11T02:19:07.064Z,989.09
2018-01-11T02:20:07.044Z,989.08
2018-01-11T02:21:06.970Z,989.09
2018-01-11T02:22:06.945Z,989.14
2018-01-11T02:23:06.923Z,989.16
2018-01-11T02:24:06.889Z,989.15
2018-01-11T02:25:06.864Z,989.07
2018-01-11T02:26:06.841Z,989.14
2018-01-11T02:27:06.812Z,989.14
2018-01-11T02:28:06.793Z,989.14
2018-01-11T02:29:06.758Z,989.14
2018-01-11T02:30:06.738Z,989.15
2018-01-11T02:31:06.706Z,989.10
2018-01-11T02:32:06.703Z,989.11
2018-01-11T02:33:06.655Z,989.12
2018-01-11T02:34:06.627Z,989.15
2018-01-11T02:35:06.609Z,989.12
2018-01-11T02:36:06.575Z,989.15
2018-01-11T02:37:06.547Z,989.17
2018-01-11T02:38:06.522Z,989.13
2018-01-11T02:39:06.496Z,989.13
2018-01-11T02:40:06.469Z,989.18
2018-01-11T02:41:06.444Z,989.14
2018-01-11T02:42:06.418Z,989.16
2018-01-11T02:43:06.388Z,989.16
2018-01-11T02:44:06.373Z,989.17
2018-01-11T02:45:06.336Z,989.17
2018-01-11T02:46:06.309Z,989.14
2018-01-11T02:47:06.290Z,989.18
2018-01-11T02:48:06.262Z,989.18
2018-01-11T02:49:06.243Z,989.15
2018-01-11T02:50:06.207Z,989.16
2018-01-11T02:51:06.186Z,989.15
2018-01-11T02:52:06.153Z,989.15
2018-01-11T02:53:06.151Z,989.15
2018-01-11T02:54:06.099Z,989.17
2018-01-11T02:55:06.072Z,989.14
2018-01-11T02:56:06.045Z,989.16
2018-01-11T02:57:06.024Z,989.15
2018-01-11T02:58:06.002Z,989.16
2018-01-11T02:59:05.969Z,989.18
2018-01-11T03:00:05.940Z,989.20
2018-01-11T03:01:05.915Z,989.23
2018-01-11T03:02:05.887Z,989.25
2018-01-11T03:03:05.859Z,989.24
2018-01-11T03:04:05.841Z,989.26
2018-01-11T03:05:05.808Z,989.30
2018-01-11T03:06:05.779Z,989.34
2018-01-11T03:07:05.760Z,989.30
2018-01-11T03:08:05.727Z,989.31
2018-01-11T03:09:05.705Z,989.33
2018-01-11T03:10:05.679Z,989.32
2018-01-11T03:11:05.648Z,989.35
2018-01-11T03:12:05.624Z,989.37
2018-01-11T03:13:05.596Z,989.34
2018-01-11T03:14:05.567Z,989.37
2018-01-11T03:15:05.546Z,989.38
2018-01-11T03:16:05.517Z,989.37
2018-01-11T03:17:05.496Z,989.42
2018-01-11T03:18:05.465Z,989.39
2018-01-11T03:19:05.438Z,989.39
2018-01-11T03:20:05.411Z,989.41
2018-01-11T03:21:05.383Z,989.39
2018-01-11T03:22:05.361Z,989.39
2018-01-11T03:23:05.330Z,989.39
2018-01-11T03:24:05.345Z,989.35
2018-01-11T03:25:05.276Z,989.39
2018-01-11T03:26:05.255Z,989.39
2018-01-11T03:27:05.224Z,989.42
2018-01-11T03:28:05.197Z,989.38
2018-01-11T03:29:05.208Z,989.38
2018-01-11T03:30:05.145Z,989.38
2018-01-11T03:31:05.116Z,989.39
2018-01-11T03:32:05.091Z,989.37
2018-01-11T03:33:05.062Z,989.35
2018-01-11T03:34:05.037Z,989.35
2018-01-11T03:35:05.014Z,989.36
2018-01-11T03:36:04.985Z,989.40
2018-01-11T03:37:04.958Z,989.39
2018-01-11T03:38:04.931Z,989.40
2018-01-11T03:39:04.901Z,989.41
2018-01-11T03:40:04.876Z,989.43
2018-01-11T03:41:04.848Z,989.40
2018-01-11T03:42:04.829Z,989.40
2018-01-11T03:43:04.799Z,989.42
2018-01-11T03:44:04.777Z,989.41
2018-01-11T03:45:04.753Z,989.43
2018-01-11T03:46:04.714Z,989.46
2018-01-11T03:47:25.694Z,989.44
2018-01-11T03:48:04.665Z,989.46
2018-01-11T03:49:04.636Z,989.44
2018-01-11T03:50:04.611Z,989.47
2018-01-11T03:51:04.588Z,989.49
2018-01-11T03:52:04.559Z,989.47
2018-01-11T03:53:04.532Z,989.45
2018-01-11T03:54:04.505Z,989.46
2018-01-11T03:55:04.480Z,989.48
2018-01-11T03:56:04.451Z,989.49
2018-01-11T03:57:04.424Z,989.50
2018-01-11T03:58:04.401Z,989.50
2018-01-11T03:59:04.376Z,989.49
2018-01-11T04:00:04.347Z,989.50
2018-01-11T04:01:04.316Z,989.50
2018-01-11T04:02:04.291Z,989.49
2018-01-11T04:03:04.273Z,989.48
2018-01-11T04:04:04.283Z,989.47
2018-01-11T04:05:04.213Z,989.48
2018-01-11T04:06:04.187Z,989.48
2018-01-11T04:07:04.160Z,989.46
2018-01-11T04:08:04.133Z,989.44
2018-01-11T04:09:04.108Z,989.47
2018-01-11T04:10:04.085Z,989.47
2018-01-11T04:11:04.077Z,989.47
2018-01-11T04:12:04.027Z,989.47
2018-01-11T04:13:04.001Z,989.51
2018-01-11T04:14:03.975Z,989.49
2018-01-11T04:15:03.947Z,989.49
2018-01-11T04:16:03.923Z,989.51
2018-01-11T04:17:03.893Z,989.48
2018-01-11T04:18:03.867Z,989.47
2018-01-11T04:19:03.841Z,989.48
2018-01-11T04:20:03.815Z,989.46
2018-01-11T04:21:03.794Z,989.46
2018-01-11T04:22:03.767Z,989.41
2018-01-11T04:23:03.736Z,989.41
2018-01-11T04:24:03.713Z,989.42
2018-01-11T04:25:03.688Z,989.41
2018-01-11T04:26:03.657Z,989.43
2018-01-11T04:27:03.630Z,989.41
2018-01-11T04:28:03.602Z,989.44
2018-01-11T04:29:03.577Z,989.43
2018-01-11T04:30:03.550Z,989.44
2018-01-11T04:31:03.524Z,989.44
2018-01-11T04:32:03.500Z,989.41
2018-01-11T04:33:03.477Z,989.49
2018-01-11T04:34:03.463Z,989.52
2018-01-11T04:35:03.421Z,989.52
2018-01-11T04:36:03.394Z,989.50
2018-01-11T04:37:03.366Z,989.49
2018-01-11T04:38:03.338Z,989.47
2018-01-11T04:39:03.359Z,989.48
2018-01-11T04:40:03.287Z,989.48
2018-01-11T04:41:03.268Z,989.44
2018-01-11T04:42:03.232Z,989.45
2018-01-11T04:43:03.212Z,989.42
2018-01-11T04:44:03.182Z,989.47
2018-01-11T04:45:03.152Z,989.47
2018-01-11T04:46:03.124Z,989.46
2018-01-11T04:47:03.101Z,989.46
2018-01-11T04:48:03.151Z,989.48
2018-01-11T04:49:03.052Z,989.46
2018-01-11T04:50:03.022Z,989.47
2018-01-11T04:51:02.995Z,989.46
2018-01-11T04:52:02.968Z,989.48
2018-01-11T04:53:02.941Z,989.47
2018-01-11T04:54:02.912Z,989.48
2018-01-11T04:55:02.888Z,989.50
2018-01-11T04:56:02.860Z,989.47
2018-01-11T04:57:02.834Z,989.48
2018-01-11T04:58:02.808Z,989.50
2018-01-11T04:59:02.792Z,989.51
2018-01-11T05:00:02.753Z,989.45
2018-01-11T05:01:02.741Z,989.50
2018-01-11T05:02:02.700Z,989.46
2018-01-11T05:03:02.671Z,989.48
2018-01-11T05:04:02.646Z,989.49
2018-01-11T05:05:02.619Z,989.52
2018-01-11T05:06:02.606Z,989.52
2018-01-11T05:07:02.565Z,989.54
2018-01-11T05:08:02.538Z,989.53
2018-01-11T05:09:02.509Z,989.54
2018-01-11T05:10:02.484Z,989.53
2018-01-11T05:11:02.459Z,989.59
2018-01-11T05:12:02.468Z,989.61
2018-01-11T05:13:02.435Z,989.57
2018-01-11T05:14:02.383Z,989.61
2018-01-11T05:15:02.352Z,989.61
2018-01-11T05:16:02.322Z,989.59
2018-01-11T05:17:02.299Z,989.59
2018-01-11T05:18:02.268Z,989.60
2018-01-11T05:19:02.243Z,989.65
2018-01-11T05:20:02.227Z,989.69
2018-01-11T05:21:02.188Z,989.66
2018-01-11T05:22:02.163Z,989.65
2018-01-11T05:23:02.134Z,989.66
2018-01-11T05:24:02.111Z,989.69
2018-01-11T05:25:02.081Z,989.66
2018-01-11T05:26:02.052Z,989.64
2018-01-11T05:27:02.027Z,989.65
2018-01-11T05:28:02.002Z,989.63
2018-01-11T05:29:01.977Z,989.59
2018-01-11T05:30:01.960Z,989.61
2018-01-11T05:31:01.928Z,989.63
2018-01-11T05:32:01.895Z,989.62
2018-01-11T05:33:01.867Z,989.67
2018-01-11T05:34:01.844Z,989.63
2018-01-11T05:35:01.852Z,989.62
2018-01-11T05:36:01.785Z,989.60
2018-01-11T05:37:01.757Z,989.59
2018-01-11T05:38:01.736Z,989.59
2018-01-11T05:39:01.707Z,989.55
2018-01-11T05:40:01.688Z,989.57
2018-01-11T05:41:01.651Z,989.57
2018-01-11T05:42:01.623Z,989.61
2018-01-11T05:43:01.650Z,989.57
2018-01-11T05:44:01.574Z,989.58
2018-01-11T05:45:01.545Z,989.58
2018-01-11T05:46:01.527Z,989.59
2018-01-11T05:47:01.494Z,989.60
2018-01-11T05:48:01.537Z,989.60
2018-01-11T05:49:01.457Z,989.61
2018-01-11T05:50:01.410Z,989.61
2018-01-11T05:51:01.385Z,989.62
2018-01-11T05:52:01.360Z,989.62
2018-01-11T05:53:01.328Z,989.58
2018-01-11T05:54:01.308Z,989.62
2018-01-11T05:55:01.281Z,989.60
2018-01-11T05:56:01.252Z,989.59
2018-01-11T05:57:01.223Z,989.62
2018-01-11T05:58:01.198Z,989.62
2018-01-11T05:59:01.169Z,989.57
2018-01-11T06:00:01.144Z,989.62
2018-01-11T06:01:01.122Z,989.61
2018-01-11T06:02:01.095Z,989.62
2018-01-11T06:03:01.065Z,989.62
2018-01-11T06:04:01.038Z,989.66
2018-01-11T06:05:01.009Z,989.63
2018-01-11T06:06:00.984Z,989.64
2018-01-11T06:07:00.957Z,989.67
2018-01-11T06:08:00.931Z,989.65
2018-01-11T06:09:00.914Z,989.67
2018-01-11T06:10:00.880Z,989.67
2018-01-11T06:11:00.854Z,989.71
2018-01-11T06:12:00.824Z,989.66
2018-01-11T06:13:00.798Z,989.68
2018-01-11T06:14:00.766Z,989.68
2018-01-11T06:15:00.743Z,989.66
2018-01-11T06:16:00.716Z,989.68
2018-01-11T06:17:00.689Z,989.68
2018-01-11T06:18:21.659Z,989.67
2018-01-11T06:19:00.633Z,989.68
2018-01-11T06:20:00.609Z,989.70
2018-01-11T06:21:00.607Z,989.70
2018-01-11T06:22:00.651Z,989.69
2018-01-11T06:23:00.601Z,989.73
2018-01-11T06:24:00.504Z,989.74
2018-01-11T06:25:00.474Z,989.78
2018-01-11T06:26:00.446Z,989.79
2018-01-11T06:27:00.421Z,989.86
2018-01-11T06:28:00.392Z,989.86
2018-01-11T06:29:00.367Z,989.88
2018-01-11T06:30:00.345Z,989.94
2018-01-11T06:31:00.311Z,989.95
2018-01-11T06:32:00.284Z,990.02
2018-01-11T06:33:00.257Z,989.97
2018-01-11T06:34:00.236Z,989.98
2018-01-11T06:35:00.209Z,990.00
2018-01-11T06:36:00.178Z,990.02
2018-01-11T06:37:00.154Z,990.06
2018-01-11T06:38:00.122Z,990.05
2018-01-11T06:39:00.099Z,990.06
2018-01-11T06:40:00.074Z,990.07
2018-01-11T06:41:00.060Z,990.04
2018-01-11T06:42:00.018Z,990.06
2018-01-11T06:42:59.989Z,990.05
2018-01-11T06:43:59.958Z,990.04
2018-01-11T06:44:59.943Z,990.02
2018-01-11T06:45:59.906Z,990.00
2018-01-11T06:46:59.883Z,990.03
2018-01-11T06:47:59.922Z,990.04
2018-01-11T06:48:59.829Z,990.03
2018-01-11T06:49:59.798Z,990.04
2018-01-11T06:50:59.773Z,990.09
2018-01-11T06:51:59.748Z,990.06
2018-01-11T06:52:59.717Z,990.10
2018-01-11T06:53:59.688Z,990.10
2018-01-11T06:54:59.663Z,990.09
2018-01-11T06:55:59.638Z,990.11
2018-01-11T06:56:59.609Z,990.09
2018-01-11T06:57:59.586Z,990.12
2018-01-11T06:58:59.553Z,990.09
2018-01-11T06:59:59.528Z,990.10
2018-01-11T07:00:59.499Z,990.12
2018-01-11T07:01:59.473Z,990.13
2018-01-11T07:02:59.447Z,990.18
2018-01-11T07:03:59.420Z,990.18
2018-01-11T07:04:59.401Z,990.22
2018-01-11T07:05:59.366Z,990.25
2018-01-11T07:06:59.342Z,990.26
2018-01-11T07:07:59.313Z,990.26
2018-01-11T07:08:59.292Z,990.28
2018-01-11T07:09:59.257Z,990.32
2018-01-11T07:10:59.232Z,990.28
2018-01-11T07:11:59.210Z,990.29
2018-01-11T07:12:59.183Z,990.31
2018-01-11T07:13:59.151Z,990.36
2018-01-11T07:14:59.127Z,990.33
2018-01-11T07:15:59.104Z,990.32
2018-01-11T07:16:59.071Z,990.33
2018-01-11T07:17:59.048Z,990.35
2018-01-11T07:18:59.020Z,990.33
2018-01-11T07:19:58.994Z,990.37
2018-01-11T07:20:58.967Z,990.40
2018-01-11T07:21:58.938Z,990.39
2018-01-11T07:22:58.913Z,990.40
2018-01-11T07:23:59.066Z,990.34
2018-01-11T07:24:58.861Z,990.37
2018-01-11T07:25:58.833Z,990.35
2018-01-11T07:26:58.806Z,990.32
2018-01-11T07:27:58.787Z,990.39
2018-01-11T07:28:58.817Z,990.39
2018-01-11T07:29:58.760Z,990.39
2018-01-11T07:30:58.737Z,990.40
2018-01-11T07:31:58.672Z,990.39
2018-01-11T07:32:58.644Z,990.37
2018-01-11T07:33:58.624Z,990.41
2018-01-11T07:34:58.592Z,990.38
2018-01-11T07:35:58.566Z,990.41
2018-01-11T07:36:58.543Z,990.42
2018-01-11T07:37:58.511Z,990.48
2018-01-11T07:38:58.486Z,990.45
2018-01-11T07:39:58.467Z,990.49
2018-01-11T07:40:58.434Z,990.50
2018-01-11T07:41:58.405Z,990.49
2018-01-11T07:42:58.382Z,990.49
2018-01-11T07:43:58.352Z,990.50
2018-01-11T07:44:58.326Z,990.54
2018-01-11T07:45:58.301Z,990.54
2018-01-11T07:46:58.279Z,990.54
2018-01-11T07:47:58.245Z,990.55
2018-01-11T07:48:58.222Z,990.57
2018-01-11T07:49:58.190Z,990.53
2018-01-11T07:50:58.174Z,990.55
2018-01-11T07:51:58.137Z,990.56
2018-01-11T07:52:58.109Z,990.56
2018-01-11T07:53:58.095Z,990.56
2018-01-11T07:54:58.058Z,990.57
2018-01-11T07:55:58.037Z,990.58
2018-01-11T07:56:58.020Z,990.62
2018-01-11T07:57:57.979Z,990.62
2018-01-11T07:58:57.952Z,990.64
2018-01-11T07:59:57.929Z,990.64
2018-01-11T08:00:57.894Z,990.62
2018-01-11T08:01:57.872Z,990.67
2018-01-11T08:02:57.846Z,990.66
2018-01-11T08:03:57.843Z,990.68
2018-01-11T08:04:57.820Z,990.65
2018-01-11T08:05:57.767Z,990.66
2018-01-11T08:06:57.736Z,990.66
2018-01-11T08:07:57.711Z,990.61
2018-01-11T08:08:57.685Z,990.66
2018-01-11T08:09:57.659Z,990.67
2018-01-11T08:10:57.632Z,990.67
2018-01-11T08:11:57.603Z,990.72
2018-01-11T08:12:57.582Z,990.74
2018-01-11T08:13:57.551Z,990.75
2018-01-11T08:14:57.526Z,990.80
2018-01-11T08:15:57.500Z,990.83
2018-01-11T08:16:57.470Z,990.86
2018-01-11T08:17:57.443Z,990.86
2018-01-11T08:18:57.416Z,990.83
2018-01-11T08:19:57.389Z,990.88
2018-01-11T08:20:57.363Z,990.89
2018-01-11T08:21:57.335Z,990.88
2018-01-11T08:22:57.310Z,990.90
2018-01-11T08:23:57.281Z,990.88
2018-01-11T08:24:57.262Z,990.86
2018-01-11T08:25:57.229Z,990.89
2018-01-11T08:26:57.204Z,990.88
2018-01-11T08:27:57.179Z,990.92
2018-01-11T08:28:57.147Z,990.87
2018-01-11T08:29:57.121Z,990.88
2018-01-11T08:30:57.098Z,990.87
2018-01-11T08:31:57.067Z,990.87
2018-01-11T08:32:57.041Z,990.89
2018-01-11T08:33:57.031Z,990.91
2018-01-11T08:34:56.998Z,990.89
2018-01-11T08:35:56.961Z,990.88
2018-01-11T08:36:56.936Z,990.92
2018-01-11T08:37:56.909Z,990.90
2018-01-11T08:38:56.941Z,990.96
2018-01-11T08:39:56.891Z,990.97
2018-01-11T08:40:56.828Z,990.98
2018-01-11T08:41:56.805Z,990.96
2018-01-11T08:42:56.776Z,990.97
2018-01-11T08:43:56.752Z,990.98
2018-01-11T08:44:56.720Z,990.98
2018-01-11T08:45:56.698Z,991.00
2018-01-11T08:46:56.670Z,991.00
2018-01-11T08:47:56.649Z,990.98
2018-01-11T08:48:56.616Z,990.99
2018-01-11T08:49:56.587Z,991.03
2018-01-11T08:50:56.560Z,991.02
2018-01-11T08:51:56.541Z,991.02
2018-01-11T08:52:56.564Z,991.04
2018-01-11T08:53:56.483Z,991.06
2018-01-11T08:54:56.453Z,991.05
2018-01-11T08:55:56.587Z,991.04
2018-01-11T08:56:56.403Z,991.06
2018-01-11T08:57:56.381Z,991.05
2018-01-11T08:58:56.359Z,991.04
2018-01-11T08:59:56.323Z,991.04
2018-01-11T09:00:56.296Z,991.06
2018-01-11T09:01:56.268Z,991.05
2018-01-11T09:02:56.248Z,991.05
2018-01-11T09:03:56.223Z,991.03
2018-01-11T09:04:56.190Z,991.03
2018-01-11T09:05:56.166Z,991.06
2018-01-11T09:06:56.140Z,991.08
2018-01-11T09:07:56.115Z,991.06
2018-01-11T09:08:56.103Z,991.08
2018-01-11T09:09:56.062Z,991.07
2018-01-11T09:10:56.034Z,991.09
2018-01-11T09:11:56.007Z,991.08
2018-01-11T09:12:55.979Z,991.13
2018-01-11T09:13:55.953Z,991.11
2018-01-11T09:14:55.986Z,991.14
2018-01-11T09:15:55.899Z,991.14
2018-01-11T09:16:55.874Z,991.17
2018-01-11T09:17:55.848Z,991.20
2018-01-11T09:18:55.831Z,991.19
2018-01-11T09:19:55.801Z,991.20
2018-01-11T09:20:55.768Z,991.20
2018-01-11T09:21:55.752Z,991.20
2018-01-11T09:22:55.718Z,991.23
2018-01-11T09:23:55.687Z,991.21
2018-01-11T09:24:55.662Z,991.27
2018-01-11T09:25:55.678Z,991.23
2018-01-11T09:26:55.610Z,991.24
2018-01-11T09:27:55.589Z,991.28
2018-01-11T09:28:55.554Z,991.26
2018-01-11T09:29:55.528Z,991.28
2018-01-11T09:30:55.504Z,991.29
2018-01-11T09:31:55.479Z,991.28
2018-01-11T09:32:55.454Z,991.30
2018-01-11T09:33:55.426Z,991.33
2018-01-11T09:34:55.399Z,991.30
2018-01-11T09:35:55.376Z,991.31
2018-01-11T09:36:55.345Z,991.35
2018-01-11T09:37:55.322Z,991.34
2018-01-11T09:38:55.295Z,991.36
2018-01-11T09:39:55.331Z,991.37
2018-01-11T09:40:55.243Z,991.34
2018-01-11T09:41:55.225Z,991.35
2018-01-11T09:42:55.187Z,991.39
2018-01-11T09:43:55.159Z,991.37
2018-01-11T09:44:55.131Z,991.32
2018-01-11T09:45:55.113Z,991.36
2018-01-11T09:46:55.082Z,991.39
2018-01-11T09:47:55.065Z,991.38
2018-01-11T09:48:55.095Z,991.37
2018-01-11T09:49:55.062Z,991.37
2018-01-11T09:50:54.977Z,991.36
2018-01-11T09:51:54.968Z,991.40
2018-01-11T09:52:54.930Z,991.44
2018-01-11T09:53:54.895Z,991.42
2018-01-11T09:54:54.874Z,991.45
2018-01-11T09:55:54.844Z,991.45
2018-01-11T09:56:54.818Z,991.42
2018-01-11T09:57:54.801Z,991.45
2018-01-11T09:58:54.765Z,991.44
2018-01-11T09:59:54.739Z,991.47
2018-01-11T10:00:54.713Z,991.43
2018-01-11T10:01:54.688Z,991.45
2018-01-11T10:02:54.661Z,991.51
2018-01-11T10:03:54.635Z,991.47
2018-01-11T10:04:54.608Z,991.47
2018-01-11T10:05:54.583Z,991.48
2018-01-11T10:06:54.562Z,991.47
2018-01-11T10:07:54.581Z,991.47
2018-01-11T10:08:54.508Z,991.47
2018-01-11T10:09:54.481Z,991.45
2018-01-11T10:10:54.456Z,991.48
2018-01-11T10:11:54.426Z,991.47
2018-01-11T10:12:54.403Z,991.46
2018-01-11T10:13:54.373Z,991.44
2018-01-11T10:14:54.357Z,991.44
2018-01-11T10:15:54.326Z,991.48
2018-01-11T10:16:54.293Z,991.46
2018-01-11T10:17:54.340Z,991.50
2018-01-11T10:18:54.241Z,991.49
2018-01-11T10:19:57.017Z,991.47
2018-01-11T10:20:54.191Z,991.49
2018-01-11T10:21:54.169Z,991.52
2018-01-11T10:22:54.133Z,991.46
2018-01-11T10:23:54.113Z,991.49
2018-01-11T10:24:54.237Z,991.54
2018-01-11T10:25:54.057Z,991.53
2018-01-11T10:26:54.030Z,991.52
2018-01-11T10:27:54.006Z,991.54
2018-01-11T10:28:53.977Z,991.55
2018-01-11T10:29:53.954Z,991.54
2018-01-11T10:30:53.925Z,991.54
2018-01-11T10:31:53.898Z,991.59
2018-01-11T10:32:53.872Z,991.55
2018-01-11T10:33:53.844Z,991.59
2018-01-11T10:34:53.822Z,991.56
2018-01-11T10:35:53.795Z,991.55
2018-01-11T10:36:53.767Z,991.57
2018-01-11T10:37:53.743Z,991.60
2018-01-11T10:38:53.716Z,991.59
2018-01-11T10:39:53.692Z,991.61
2018-01-11T10:40:53.663Z,991.61
2018-01-11T10:41:53.634Z,991.62
2018-01-11T10:42:53.618Z,991.60
2018-01-11T10:43:53.584Z,991.61
2018-01-11T10:44:53.568Z,991.65
2018-01-11T10:45:53.530Z,991.66
2018-01-11T10:46:53.503Z,991.66
2018-01-11T10:47:53.482Z,991.65
2018-01-11T10:48:53.467Z,991.61
2018-01-11T10:49:53.444Z,991.64
2018-01-11T10:50:53.403Z,991.62
2018-01-11T10:51:53.380Z,991.62
2018-01-11T10:52:53.347Z,991.64
2018-01-11T10:53:53.321Z,991.69
2018-01-11T10:54:53.295Z,991.65
2018-01-11T10:55:53.277Z,991.65
2018-01-11T10:56:53.243Z,991.63
2018-01-11T10:57:53.223Z,991.62
2018-01-11T10:58:53.197Z,991.63
2018-01-11T10:59:53.207Z,991.63
2018-01-11T11:00:53.143Z,991.62
2018-01-11T11:01:53.114Z,991.65
2018-01-11T11:02:53.086Z,991.64
2018-01-11T11:03:53.066Z,991.66
2018-01-11T11:04:53.033Z,991.70
2018-01-11T11:05:53.010Z,991.70
2018-01-11T11:06:52.991Z,991.70
2018-01-11T11:07:52.960Z,991.75
2018-01-11T11:08:52.937Z,991.71
2018-01-11T11:09:52.916Z,991.71
2018-01-11T11:10:52.880Z,991.70
2018-01-11T11:11:52.856Z,991.71
2018-01-11T11:12:52.830Z,991.73
2018-01-11T11:13:52.800Z,991.69
2018-01-11T11:14:52.773Z,991.71
2018-01-11T11:15:52.752Z,991.68
2018-01-11T11:16:52.720Z,991.72
2018-01-11T11:17:52.697Z,991.74
2018-01-11T11:18:52.676Z,991.73
2018-01-11T11:19:52.644Z,991.75
2018-01-11T11:20:52.618Z,991.76
2018-01-11T11:21:52.594Z,991.72
2018-01-11T11:22:52.567Z,991.76
2018-01-11T11:23:52.540Z,991.74
2018-01-11T11:24:52.513Z,991.73
2018-01-11T11:25:52.490Z,991.75
2018-01-11T11:26:52.465Z,991.77
2018-01-11T11:27:52.440Z,991.74
2018-01-11T11:28:52.409Z,991.75
2018-01-11T11:29:52.385Z,991.75
2018-01-11T11:30:52.357Z,991.76
2018-01-11T11:31:52.332Z,991.76
2018-01-11T11:32:52.307Z,991.76
2018-01-11T11:33:52.280Z,991.75
2018-01-11T11:34:52.253Z,991.75
2018-01-11T11:35:52.226Z,991.71
2018-01-11T11:36:52.199Z,991.69
2018-01-11T11:37:52.174Z,991.70
2018-01-11T11:38:52.153Z,991.70
2018-01-11T11:39:52.122Z,991.69
2018-01-11T11:40:52.101Z,991.71
2018-01-11T11:41:52.072Z,991.70
2018-01-11T11:42:52.045Z,991.68
2018-01-11T11:43:52.021Z,991.68
2018-01-11T11:44:51.996Z,991.69
2018-01-11T11:45:51.964Z,991.69
2018-01-11T11:46:51.965Z,991.70
2018-01-11T11:47:51.923Z,991.69
2018-01-11T11:48:51.898Z,991.64
2018-01-11T11:49:51.862Z,991.69
2018-01-11T11:50:51.841Z,991.66
2018-01-11T11:51:51.810Z,991.70
2018-01-11T11:52:51.787Z,991.71
2018-01-11T11:53:51.757Z,991.69
2018-01-11T11:54:51.733Z,991.67
2018-01-11T11:55:51.720Z,991.70
2018-01-11T11:56:51.683Z,991.70
2018-01-11T11:57:51.654Z,991.73
2018-01-11T11:58:51.635Z,991.70
2018-01-11T11:59:51.602Z,991.69
2018-01-11T12:00:51.578Z,991.70
2018-01-11T12:01:51.564Z,991.69
2018-01-11T12:02:51.526Z,991.68
2018-01-11T12:03:51.506Z,991.69
2018-01-11T12:04:51.475Z,991.74
2018-01-11T12:05:51.448Z,991.72
2018-01-11T12:06:51.420Z,991.68
2018-01-11T12:07:51.399Z,991.67
2018-01-11T12:08:51.367Z,991.68
2018-01-11T12:09:51.340Z,991.69
2018-01-11T12:10:51.375Z,991.68
2018-01-11T12:11:51.292Z,991.66
2018-01-11T12:12:51.273Z,991.66
2018-01-11T12:13:51.253Z,991.63
2018-01-11T12:14:51.219Z,991.63
2018-01-11T12:15:51.192Z,991.64
2018-01-11T12:16:51.161Z,991.60
2018-01-11T12:17:51.138Z,991.62
2018-01-11T12:18:51.120Z,991.61
2018-01-11T12:19:51.087Z,991.61
2018-01-11T12:20:51.063Z,991.57
2018-01-11T12:21:51.072Z,991.61
2018-01-11T12:22:51.011Z,991.63
2018-01-11T12:23:50.996Z,991.59
2018-01-11T12:24:50.958Z,991.61
2018-01-11T12:25:50.932Z,991.59
2018-01-11T12:26:50.907Z,991.62
2018-01-11T12:27:50.896Z,991.63